sensor_id;sensor_type;location;lat;lon;timestamp;P1;durP1;ratioP1;P2;durP2;ratioP2
4885;SDS011;2457;51.788;6.136;2023-04-22T00:02:14;6.00;;;2.40;;
4885;SDS011;2457;51.788;6.136;2023-04-22T00:04:42;4.53;;;2.23;;
4885;SDS011;2457;51.788;6.136;2023-04-22T00:07:13;6.10;;;2.47;;
4885;SDS011;2457;51.788;6.136;2023-04-22T00:09:41;5.30;;;2.43;;
4885;SDS011;2457;51.788;6.136;2023-04-22T00:12:08;4.77;;;2.33;;
4885;SDS011;2457;51.788;6.136;2023-04-22T00:14:37;4.47;;;2.17;;
4885;SDS011;2457;51.788;6.136;2023-04-22T00:17:04;6.43;;;2.40;;
4885;SDS011;2457;51.788;6.136;2023-04-22T00:19:33;4.60;;;2.10;;
4885;SDS011;2457;51.788;6.136;2023-04-22T00:22:00;4.47;;;2.00;;
4885;SDS011;2457;51.788;6.136;2023-04-22T00:24:28;4.70;;;2.37;;
4885;SDS011;2457;51.788;6.136;2023-04-22T00:26:55;5.53;;;2.37;;
4885;SDS011;2457;51.788;6.136;2023-04-22T00:29:27;5.10;;;2.70;;
4885;SDS011;2457;51.788;6.136;2023-04-22T00:31:52;5.67;;;2.77;;
4885;SDS011;2457;51.788;6.136;2023-04-22T00:34:19;5.93;;;2.67;;
4885;SDS011;2457;51.788;6.136;2023-04-22T00:36:47;5.70;;;2.97;;
4885;SDS011;2457;51.788;6.136;2023-04-22T00:39:14;5.73;;;2.77;;
4885;SDS011;2457;51.788;6.136;2023-04-22T00:41:41;7.03;;;2.90;;
4885;SDS011;2457;51.788;6.136;2023-04-22T00:44:09;6.57;;;3.30;;
4885;SDS011;2457;51.788;6.136;2023-04-22T00:46:37;5.40;;;2.90;;
4885;SDS011;2457;51.788;6.136;2023-04-22T00:49:05;5.17;;;3.17;;
4885;SDS011;2457;51.788;6.136;2023-04-22T00:51:32;8.80;;;3.30;;
4885;SDS011;2457;51.788;6.136;2023-04-22T00:53:59;6.00;;;3.37;;
4885;SDS011;2457;51.788;6.136;2023-04-22T00:56:27;6.10;;;3.63;;
4885;SDS011;2457;51.788;6.136;2023-04-22T00:58:54;7.97;;;3.70;;
4885;SDS011;2457;51.788;6.136;2023-04-22T01:01:22;6.90;;;3.87;;
4885;SDS011;2457;51.788;6.136;2023-04-22T01:03:49;5.67;;;3.27;;
4885;SDS011;2457;51.788;6.136;2023-04-22T01:06:18;6.80;;;3.80;;
4885;SDS011;2457;51.788;6.136;2023-04-22T01:08:48;7.30;;;3.80;;
4885;SDS011;2457;51.788;6.136;2023-04-22T01:11:15;6.87;;;3.90;;
4885;SDS011;2457;51.788;6.136;2023-04-22T01:13:43;8.77;;;4.10;;
4885;SDS011;2457;51.788;6.136;2023-04-22T01:16:10;9.00;;;4.83;;
4885;SDS011;2457;51.788;6.136;2023-04-22T01:18:37;8.50;;;4.40;;
4885;SDS011;2457;51.788;6.136;2023-04-22T01:21:04;6.80;;;4.03;;
4885;SDS011;2457;51.788;6.136;2023-04-22T01:23:32;9.27;;;4.77;;
4885;SDS011;2457;51.788;6.136;2023-04-22T01:25:59;10.00;;;4.70;;
4885;SDS011;2457;51.788;6.136;2023-04-22T01:28:27;6.40;;;3.83;;
4885;SDS011;2457;51.788;6.136;2023-04-22T01:30:55;6.63;;;3.57;;
4885;SDS011;2457;51.788;6.136;2023-04-22T01:33:22;9.53;;;4.80;;
4885;SDS011;2457;51.788;6.136;2023-04-22T01:35:49;8.17;;;5.17;;
4885;SDS011;2457;51.788;6.136;2023-04-22T01:38:17;8.27;;;5.00;;
4885;SDS011;2457;51.788;6.136;2023-04-22T01:40:44;8.87;;;4.77;;
4885;SDS011;2457;51.788;6.136;2023-04-22T01:43:11;7.93;;;5.13;;
4885;SDS011;2457;51.788;6.136;2023-04-22T01:45:38;9.50;;;5.70;;
4885;SDS011;2457;51.788;6.136;2023-04-22T01:48:06;7.80;;;4.93;;
4885;SDS011;2457;51.788;6.136;2023-04-22T01:50:33;9.13;;;5.87;;
4885;SDS011;2457;51.788;6.136;2023-04-22T01:53:00;10.23;;;5.70;;
4885;SDS011;2457;51.788;6.136;2023-04-22T01:55:28;9.37;;;5.47;;
4885;SDS011;2457;51.788;6.136;2023-04-22T01:57:56;9.90;;;6.07;;
4885;SDS011;2457;51.788;6.136;2023-04-22T02:00:23;11.50;;;5.30;;
4885;SDS011;2457;51.788;6.136;2023-04-22T02:02:51;9.60;;;5.60;;
4885;SDS011;2457;51.788;6.136;2023-04-22T02:05:18;11.67;;;5.77;;
4885;SDS011;2457;51.788;6.136;2023-04-22T02:07:45;8.97;;;5.40;;
4885;SDS011;2457;51.788;6.136;2023-04-22T02:10:13;9.77;;;5.53;;
4885;SDS011;2457;51.788;6.136;2023-04-22T02:12:40;10.23;;;5.63;;
4885;SDS011;2457;51.788;6.136;2023-04-22T02:15:07;9.03;;;6.13;;
4885;SDS011;2457;51.788;6.136;2023-04-22T02:17:35;12.07;;;6.60;;
4885;SDS011;2457;51.788;6.136;2023-04-22T02:20:03;9.43;;;5.93;;
4885;SDS011;2457;51.788;6.136;2023-04-22T02:22:30;9.57;;;5.50;;
4885;SDS011;2457;51.788;6.136;2023-04-22T02:24:58;10.97;;;6.10;;
4885;SDS011;2457;51.788;6.136;2023-04-22T02:27:26;9.50;;;6.13;;
4885;SDS011;2457;51.788;6.136;2023-04-22T02:29:53;15.03;;;6.70;;
4885;SDS011;2457;51.788;6.136;2023-04-22T02:32:21;10.30;;;5.47;;
4885;SDS011;2457;51.788;6.136;2023-04-22T02:34:48;11.70;;;6.50;;
4885;SDS011;2457;51.788;6.136;2023-04-22T02:37:15;12.83;;;7.00;;
4885;SDS011;2457;51.788;6.136;2023-04-22T02:39:44;11.97;;;6.60;;
4885;SDS011;2457;51.788;6.136;2023-04-22T02:42:11;11.57;;;6.20;;
4885;SDS011;2457;51.788;6.136;2023-04-22T02:44:38;9.77;;;5.93;;
4885;SDS011;2457;51.788;6.136;2023-04-22T02:47:06;9.33;;;6.23;;
4885;SDS011;2457;51.788;6.136;2023-04-22T02:49:33;12.47;;;6.30;;
4885;SDS011;2457;51.788;6.136;2023-04-22T02:52:00;12.67;;;6.37;;
4885;SDS011;2457;51.788;6.136;2023-04-22T02:54:28;9.70;;;5.80;;
4885;SDS011;2457;51.788;6.136;2023-04-22T02:56:55;11.70;;;6.37;;
4885;SDS011;2457;51.788;6.136;2023-04-22T02:59:23;10.43;;;6.73;;
4885;SDS011;2457;51.788;6.136;2023-04-22T03:01:50;10.60;;;6.60;;
4885;SDS011;2457;51.788;6.136;2023-04-22T03:04:17;9.70;;;6.30;;
4885;SDS011;2457;51.788;6.136;2023-04-22T03:06:51;10.67;;;6.90;;
4885;SDS011;2457;51.788;6.136;2023-04-22T03:09:15;10.77;;;7.03;;
4885;SDS011;2457;51.788;6.136;2023-04-22T03:11:43;11.93;;;7.20;;
4885;SDS011;2457;51.788;6.136;2023-04-22T03:14:10;11.57;;;6.80;;
4885;SDS011;2457;51.788;6.136;2023-04-22T03:16:38;11.33;;;6.37;;
4885;SDS011;2457;51.788;6.136;2023-04-22T03:19:05;9.70;;;6.73;;
4885;SDS011;2457;51.788;6.136;2023-04-22T03:21:32;10.60;;;6.87;;
4885;SDS011;2457;51.788;6.136;2023-04-22T03:23:59;10.67;;;6.90;;
4885;SDS011;2457;51.788;6.136;2023-04-22T03:26:27;14.70;;;7.70;;
4885;SDS011;2457;51.788;6.136;2023-04-22T03:28:54;11.37;;;7.10;;
4885;SDS011;2457;51.788;6.136;2023-04-22T03:31:21;12.60;;;6.87;;
4885;SDS011;2457;51.788;6.136;2023-04-22T03:33:48;11.40;;;7.30;;
4885;SDS011;2457;51.788;6.136;2023-04-22T03:36:16;12.40;;;7.50;;
4885;SDS011;2457;51.788;6.136;2023-04-22T03:38:43;12.33;;;7.43;;
4885;SDS011;2457;51.788;6.136;2023-04-22T03:41:10;9.50;;;6.10;;
4885;SDS011;2457;51.788;6.136;2023-04-22T03:43:37;10.40;;;6.50;;
4885;SDS011;2457;51.788;6.136;2023-04-22T03:46:05;13.20;;;7.97;;
4885;SDS011;2457;51.788;6.136;2023-04-22T03:48:33;13.00;;;7.10;;
4885;SDS011;2457;51.788;6.136;2023-04-22T03:51:01;11.77;;;6.93;;
4885;SDS011;2457;51.788;6.136;2023-04-22T03:53:28;12.47;;;6.57;;
4885;SDS011;2457;51.788;6.136;2023-04-22T03:55:56;12.33;;;7.60;;
4885;SDS011;2457;51.788;6.136;2023-04-22T03:58:23;12.00;;;7.50;;
4885;SDS011;2457;51.788;6.136;2023-04-22T04:00:50;13.00;;;8.40;;
4885;SDS011;2457;51.788;6.136;2023-04-22T04:03:17;12.00;;;7.20;;
4885;SDS011;2457;51.788;6.136;2023-04-22T04:05:45;14.57;;;9.20;;
4885;SDS011;2457;51.788;6.136;2023-04-22T04:08:12;15.20;;;8.50;;
4885;SDS011;2457;51.788;6.136;2023-04-22T04:10:40;11.23;;;6.90;;
4885;SDS011;2457;51.788;6.136;2023-04-22T04:13:07;12.90;;;8.50;;
4885;SDS011;2457;51.788;6.136;2023-04-22T04:15:35;12.83;;;7.70;;
4885;SDS011;2457;51.788;6.136;2023-04-22T04:18:02;13.77;;;8.30;;
4885;SDS011;2457;51.788;6.136;2023-04-22T04:20:30;12.77;;;7.70;;
4885;SDS011;2457;51.788;6.136;2023-04-22T04:22:57;15.90;;;8.50;;
4885;SDS011;2457;51.788;6.136;2023-04-22T04:25:24;14.03;;;7.60;;
4885;SDS011;2457;51.788;6.136;2023-04-22T04:27:52;14.80;;;8.70;;
4885;SDS011;2457;51.788;6.136;2023-04-22T04:30:19;12.70;;;7.83;;
4885;SDS011;2457;51.788;6.136;2023-04-22T04:32:46;13.00;;;7.90;;
4885;SDS011;2457;51.788;6.136;2023-04-22T04:35:14;12.00;;;7.77;;
4885;SDS011;2457;51.788;6.136;2023-04-22T04:37:41;16.70;;;8.57;;
4885;SDS011;2457;51.788;6.136;2023-04-22T04:40:09;13.20;;;7.33;;
4885;SDS011;2457;51.788;6.136;2023-04-22T04:42:37;11.40;;;7.97;;
4885;SDS011;2457;51.788;6.136;2023-04-22T04:45:05;16.20;;;8.07;;
4885;SDS011;2457;51.788;6.136;2023-04-22T04:47:32;12.27;;;7.83;;
4885;SDS011;2457;51.788;6.136;2023-04-22T04:50:00;14.47;;;8.20;;
4885;SDS011;2457;51.788;6.136;2023-04-22T04:52:29;13.87;;;8.63;;
4885;SDS011;2457;51.788;6.136;2023-04-22T04:54:57;16.50;;;8.90;;
4885;SDS011;2457;51.788;6.136;2023-04-22T04:57:24;20.30;;;10.20;;
4885;SDS011;2457;51.788;6.136;2023-04-22T04:59:51;12.50;;;8.17;;
4885;SDS011;2457;51.788;6.136;2023-04-22T05:02:18;14.40;;;9.27;;
4885;SDS011;2457;51.788;6.136;2023-04-22T05:04:46;13.70;;;8.83;;
4885;SDS011;2457;51.788;6.136;2023-04-22T05:07:13;14.30;;;9.20;;
4885;SDS011;2457;51.788;6.136;2023-04-22T05:09:40;13.00;;;7.87;;
4885;SDS011;2457;51.788;6.136;2023-04-22T05:12:07;14.37;;;9.00;;
4885;SDS011;2457;51.788;6.136;2023-04-22T05:14:35;12.40;;;8.00;;
4885;SDS011;2457;51.788;6.136;2023-04-22T05:17:02;14.27;;;8.10;;
4885;SDS011;2457;51.788;6.136;2023-04-22T05:19:29;16.30;;;8.53;;
4885;SDS011;2457;51.788;6.136;2023-04-22T05:21:56;16.57;;;8.70;;
4885;SDS011;2457;51.788;6.136;2023-04-22T05:24:24;16.37;;;9.70;;
4885;SDS011;2457;51.788;6.136;2023-04-22T05:26:51;13.00;;;8.50;;
4885;SDS011;2457;51.788;6.136;2023-04-22T05:29:18;15.60;;;9.20;;
4885;SDS011;2457;51.788;6.136;2023-04-22T05:31:46;14.20;;;8.37;;
4885;SDS011;2457;51.788;6.136;2023-04-22T05:34:13;15.80;;;9.23;;
4885;SDS011;2457;51.788;6.136;2023-04-22T05:36:40;12.67;;;7.90;;
4885;SDS011;2457;51.788;6.136;2023-04-22T05:39:07;14.23;;;8.23;;
4885;SDS011;2457;51.788;6.136;2023-04-22T05:41:35;15.43;;;8.43;;
4885;SDS011;2457;51.788;6.136;2023-04-22T05:44:02;16.83;;;8.87;;
4885;SDS011;2457;51.788;6.136;2023-04-22T05:46:29;13.53;;;8.10;;
4885;SDS011;2457;51.788;6.136;2023-04-22T05:48:56;14.17;;;8.33;;
4885;SDS011;2457;51.788;6.136;2023-04-22T05:51:24;12.90;;;8.27;;
4885;SDS011;2457;51.788;6.136;2023-04-22T05:53:51;13.83;;;8.30;;
4885;SDS011;2457;51.788;6.136;2023-04-22T05:56:19;17.40;;;8.90;;
4885;SDS011;2457;51.788;6.136;2023-04-22T05:58:46;14.40;;;8.33;;
4885;SDS011;2457;51.788;6.136;2023-04-22T06:01:14;14.13;;;8.53;;
4885;SDS011;2457;51.788;6.136;2023-04-22T06:03:41;14.20;;;8.60;;
4885;SDS011;2457;51.788;6.136;2023-04-22T06:06:08;13.47;;;8.00;;
4885;SDS011;2457;51.788;6.136;2023-04-22T06:08:35;15.67;;;9.37;;
4885;SDS011;2457;51.788;6.136;2023-04-22T06:11:03;12.40;;;8.30;;
4885;SDS011;2457;51.788;6.136;2023-04-22T06:13:30;14.50;;;9.50;;
4885;SDS011;2457;51.788;6.136;2023-04-22T06:15:57;13.80;;;8.83;;
4885;SDS011;2457;51.788;6.136;2023-04-22T06:18:26;15.50;;;8.70;;
4885;SDS011;2457;51.788;6.136;2023-04-22T06:20:53;16.73;;;9.17;;
4885;SDS011;2457;51.788;6.136;2023-04-22T06:23:21;12.37;;;8.03;;
4885;SDS011;2457;51.788;6.136;2023-04-22T06:25:48;13.13;;;8.60;;
4885;SDS011;2457;51.788;6.136;2023-04-22T06:28:15;19.50;;;9.50;;
4885;SDS011;2457;51.788;6.136;2023-04-22T06:30:42;16.70;;;8.77;;
4885;SDS011;2457;51.788;6.136;2023-04-22T06:33:10;15.83;;;8.73;;
4885;SDS011;2457;51.788;6.136;2023-04-22T06:35:37;12.87;;;8.07;;
4885;SDS011;2457;51.788;6.136;2023-04-22T06:38:04;15.10;;;8.70;;
4885;SDS011;2457;51.788;6.136;2023-04-22T06:40:31;15.60;;;8.47;;
4885;SDS011;2457;51.788;6.136;2023-04-22T06:42:59;15.80;;;7.37;;
4885;SDS011;2457;51.788;6.136;2023-04-22T06:45:26;16.07;;;8.70;;
4885;SDS011;2457;51.788;6.136;2023-04-22T06:47:53;14.47;;;7.37;;
4885;SDS011;2457;51.788;6.136;2023-04-22T06:50:21;13.70;;;8.30;;
4885;SDS011;2457;51.788;6.136;2023-04-22T06:52:48;15.80;;;8.07;;
4885;SDS011;2457;51.788;6.136;2023-04-22T06:55:15;12.23;;;7.33;;
4885;SDS011;2457;51.788;6.136;2023-04-22T06:57:42;13.30;;;7.67;;
4885;SDS011;2457;51.788;6.136;2023-04-22T07:00:10;13.77;;;7.53;;
4885;SDS011;2457;51.788;6.136;2023-04-22T07:02:37;19.13;;;7.47;;
4885;SDS011;2457;51.788;6.136;2023-04-22T07:05:05;14.17;;;7.87;;
4885;SDS011;2457;51.788;6.136;2023-04-22T07:07:32;9.23;;;5.70;;
4885;SDS011;2457;51.788;6.136;2023-04-22T07:09:59;10.77;;;5.87;;
4885;SDS011;2457;51.788;6.136;2023-04-22T07:12:26;13.00;;;6.17;;
4885;SDS011;2457;51.788;6.136;2023-04-22T07:14:54;11.47;;;5.87;;
4885;SDS011;2457;51.788;6.136;2023-04-22T07:17:21;10.03;;;5.70;;
4885;SDS011;2457;51.788;6.136;2023-04-22T07:19:48;8.80;;;4.97;;
4885;SDS011;2457;51.788;6.136;2023-04-22T07:22:16;8.77;;;5.70;;
4885;SDS011;2457;51.788;6.136;2023-04-22T07:24:43;10.70;;;5.00;;
4885;SDS011;2457;51.788;6.136;2023-04-22T07:27:10;15.23;;;4.97;;
4885;SDS011;2457;51.788;6.136;2023-04-22T07:29:37;9.90;;;5.10;;
4885;SDS011;2457;51.788;6.136;2023-04-22T07:32:05;10.80;;;4.40;;
4885;SDS011;2457;51.788;6.136;2023-04-22T07:34:32;9.80;;;4.60;;
4885;SDS011;2457;51.788;6.136;2023-04-22T07:36:59;7.47;;;4.27;;
4885;SDS011;2457;51.788;6.136;2023-04-22T07:39:27;7.70;;;3.93;;
4885;SDS011;2457;51.788;6.136;2023-04-22T07:41:54;8.43;;;3.80;;
4885;SDS011;2457;51.788;6.136;2023-04-22T07:44:22;8.83;;;4.20;;
4885;SDS011;2457;51.788;6.136;2023-04-22T07:46:49;7.70;;;3.60;;
4885;SDS011;2457;51.788;6.136;2023-04-22T07:49:16;6.63;;;3.30;;
4885;SDS011;2457;51.788;6.136;2023-04-22T07:51:45;8.87;;;3.60;;
4885;SDS011;2457;51.788;6.136;2023-04-22T07:54:12;9.30;;;4.20;;
4885;SDS011;2457;51.788;6.136;2023-04-22T07:56:39;7.83;;;4.07;;
4885;SDS011;2457;51.788;6.136;2023-04-22T07:59:06;9.07;;;4.37;;
4885;SDS011;2457;51.788;6.136;2023-04-22T08:01:34;7.90;;;3.90;;
4885;SDS011;2457;51.788;6.136;2023-04-22T08:04:01;8.87;;;4.67;;
4885;SDS011;2457;51.788;6.136;2023-04-22T08:06:28;11.40;;;4.50;;
4885;SDS011;2457;51.788;6.136;2023-04-22T08:08:57;11.00;;;4.20;;
4885;SDS011;2457;51.788;6.136;2023-04-22T08:11:24;9.97;;;4.20;;
4885;SDS011;2457;51.788;6.136;2023-04-22T08:13:51;9.07;;;4.70;;
4885;SDS011;2457;51.788;6.136;2023-04-22T08:16:19;7.47;;;3.97;;
4885;SDS011;2457;51.788;6.136;2023-04-22T08:18:46;7.40;;;3.87;;
4885;SDS011;2457;51.788;6.136;2023-04-22T08:21:13;8.47;;;4.70;;
4885;SDS011;2457;51.788;6.136;2023-04-22T08:23:40;8.50;;;3.87;;
4885;SDS011;2457;51.788;6.136;2023-04-22T08:26:08;8.40;;;4.43;;
4885;SDS011;2457;51.788;6.136;2023-04-22T08:28:37;9.07;;;5.00;;
4885;SDS011;2457;51.788;6.136;2023-04-22T08:31:04;7.50;;;4.30;;
4885;SDS011;2457;51.788;6.136;2023-04-22T08:33:31;7.37;;;4.20;;
4885;SDS011;2457;51.788;6.136;2023-04-22T08:35:59;10.10;;;5.00;;
4885;SDS011;2457;51.788;6.136;2023-04-22T08:38:28;7.67;;;4.27;;
4885;SDS011;2457;51.788;6.136;2023-04-22T08:40:55;7.93;;;4.20;;
4885;SDS011;2457;51.788;6.136;2023-04-22T08:43:24;11.10;;;4.50;;
4885;SDS011;2457;51.788;6.136;2023-04-22T08:45:52;8.93;;;4.67;;
4885;SDS011;2457;51.788;6.136;2023-04-22T08:48:19;8.53;;;4.47;;
4885;SDS011;2457;51.788;6.136;2023-04-22T08:50:46;8.70;;;4.60;;
4885;SDS011;2457;51.788;6.136;2023-04-22T08:53:14;8.90;;;4.40;;
4885;SDS011;2457;51.788;6.136;2023-04-22T08:55:42;8.60;;;4.80;;
4885;SDS011;2457;51.788;6.136;2023-04-22T08:58:11;8.60;;;4.30;;
4885;SDS011;2457;51.788;6.136;2023-04-22T09:00:38;8.00;;;4.43;;
4885;SDS011;2457;51.788;6.136;2023-04-22T09:03:07;9.50;;;4.23;;
4885;SDS011;2457;51.788;6.136;2023-04-22T09:05:35;12.93;;;4.77;;
4885;SDS011;2457;51.788;6.136;2023-04-22T09:08:02;10.17;;;4.70;;
4885;SDS011;2457;51.788;6.136;2023-04-22T09:10:30;9.90;;;4.70;;
4885;SDS011;2457;51.788;6.136;2023-04-22T09:12:57;8.57;;;4.13;;
4885;SDS011;2457;51.788;6.136;2023-04-22T09:15:26;8.37;;;4.53;;
4885;SDS011;2457;51.788;6.136;2023-04-22T09:17:53;8.13;;;3.90;;
4885;SDS011;2457;51.788;6.136;2023-04-22T09:20:24;7.43;;;4.10;;
4885;SDS011;2457;51.788;6.136;2023-04-22T09:22:49;7.40;;;4.03;;
4885;SDS011;2457;51.788;6.136;2023-04-22T09:25:20;8.20;;;3.90;;
4885;SDS011;2457;51.788;6.136;2023-04-22T09:27:51;8.10;;;4.47;;
4885;SDS011;2457;51.788;6.136;2023-04-22T09:30:25;6.93;;;3.60;;
4885;SDS011;2457;51.788;6.136;2023-04-22T09:33:04;13.00;;;3.83;;
4885;SDS011;2457;51.788;6.136;2023-04-22T09:35:28;7.27;;;4.00;;
4885;SDS011;2457;51.788;6.136;2023-04-22T09:37:56;7.83;;;3.63;;
4885;SDS011;2457;51.788;6.136;2023-04-22T09:40:24;8.10;;;3.90;;
4885;SDS011;2457;51.788;6.136;2023-04-22T09:42:57;9.30;;;4.53;;
4885;SDS011;2457;51.788;6.136;2023-04-22T09:45:27;6.47;;;3.57;;
4885;SDS011;2457;51.788;6.136;2023-04-22T09:47:54;7.63;;;4.10;;
4885;SDS011;2457;51.788;6.136;2023-04-22T09:50:25;8.80;;;4.00;;
4885;SDS011;2457;51.788;6.136;2023-04-22T09:52:58;7.27;;;3.57;;
4885;SDS011;2457;51.788;6.136;2023-04-22T09:55:23;9.20;;;3.80;;
4885;SDS011;2457;51.788;6.136;2023-04-22T09:57:54;7.03;;;3.80;;
4885;SDS011;2457;51.788;6.136;2023-04-22T10:00:26;8.30;;;4.37;;
4885;SDS011;2457;51.788;6.136;2023-04-22T10:02:53;8.43;;;3.50;;
4885;SDS011;2457;51.788;6.136;2023-04-22T10:05:20;8.50;;;3.23;;
4885;SDS011;2457;51.788;6.136;2023-04-22T10:07:48;7.97;;;4.17;;
4885;SDS011;2457;51.788;6.136;2023-04-22T10:10:15;8.50;;;4.00;;
4885;SDS011;2457;51.788;6.136;2023-04-22T10:12:42;8.53;;;4.30;;
4885;SDS011;2457;51.788;6.136;2023-04-22T10:15:10;6.73;;;3.20;;
4885;SDS011;2457;51.788;6.136;2023-04-22T10:17:37;8.30;;;3.67;;
4885;SDS011;2457;51.788;6.136;2023-04-22T10:20:06;6.43;;;3.63;;
4885;SDS011;2457;51.788;6.136;2023-04-22T10:22:35;9.77;;;4.00;;
4885;SDS011;2457;51.788;6.136;2023-04-22T10:25:02;9.83;;;4.43;;
4885;SDS011;2457;51.788;6.136;2023-04-22T10:27:30;6.60;;;3.43;;
4885;SDS011;2457;51.788;6.136;2023-04-22T10:29:57;8.00;;;3.80;;
4885;SDS011;2457;51.788;6.136;2023-04-22T10:32:24;7.70;;;3.87;;
4885;SDS011;2457;51.788;6.136;2023-04-22T10:35:08;6.90;;;3.80;;
4885;SDS011;2457;51.788;6.136;2023-04-22T10:37:39;7.73;;;3.40;;
4885;SDS011;2457;51.788;6.136;2023-04-22T10:40:06;6.70;;;3.57;;
4885;SDS011;2457;51.788;6.136;2023-04-22T10:42:34;6.80;;;3.40;;
4885;SDS011;2457;51.788;6.136;2023-04-22T10:45:02;10.00;;;3.90;;
4885;SDS011;2457;51.788;6.136;2023-04-22T10:52:44;6.63;;;3.30;;
4885;SDS011;2457;51.788;6.136;2023-04-22T10:55:11;8.77;;;3.23;;
4885;SDS011;2457;51.788;6.136;2023-04-22T10:57:42;7.27;;;3.57;;
4885;SDS011;2457;51.788;6.136;2023-04-22T11:00:29;7.30;;;3.83;;
4885;SDS011;2457;51.788;6.136;2023-04-22T11:03:09;6.60;;;3.57;;
4885;SDS011;2457;51.788;6.136;2023-04-22T11:05:37;9.20;;;4.37;;
4885;SDS011;2457;51.788;6.136;2023-04-22T11:08:06;7.97;;;3.90;;
4885;SDS011;2457;51.788;6.136;2023-04-22T11:10:34;8.20;;;4.30;;
4885;SDS011;2457;51.788;6.136;2023-04-22T11:13:03;8.93;;;4.70;;
4885;SDS011;2457;51.788;6.136;2023-04-22T11:15:33;8.30;;;4.10;;
4885;SDS011;2457;51.788;6.136;2023-04-22T11:18:01;6.40;;;3.70;;
4885;SDS011;2457;51.788;6.136;2023-04-22T11:20:28;6.60;;;3.37;;
4885;SDS011;2457;51.788;6.136;2023-04-22T11:22:56;11.60;;;4.07;;
4885;SDS011;2457;51.788;6.136;2023-04-22T11:25:24;7.40;;;3.90;;
4885;SDS011;2457;51.788;6.136;2023-04-22T11:27:52;7.83;;;3.40;;
4885;SDS011;2457;51.788;6.136;2023-04-22T11:30:21;7.23;;;3.80;;
4885;SDS011;2457;51.788;6.136;2023-04-22T11:32:49;8.10;;;3.97;;
4885;SDS011;2457;51.788;6.136;2023-04-22T11:35:20;7.77;;;3.53;;
4885;SDS011;2457;51.788;6.136;2023-04-22T11:37:51;8.37;;;3.33;;
4885;SDS011;2457;51.788;6.136;2023-04-22T11:40:29;9.83;;;4.07;;
4885;SDS011;2457;51.788;6.136;2023-04-22T11:42:52;6.90;;;3.77;;
4885;SDS011;2457;51.788;6.136;2023-04-22T11:45:20;6.63;;;3.30;;
4885;SDS011;2457;51.788;6.136;2023-04-22T11:47:47;7.70;;;3.70;;
4885;SDS011;2457;51.788;6.136;2023-04-22T11:50:16;9.10;;;4.20;;
4885;SDS011;2457;51.788;6.136;2023-04-22T11:52:53;5.43;;;2.80;;
4885;SDS011;2457;51.788;6.136;2023-04-22T11:58:01;6.40;;;3.40;;
4885;SDS011;2457;51.788;6.136;2023-04-22T12:00:19;7.10;;;3.23;;
4885;SDS011;2457;51.788;6.136;2023-04-22T12:02:53;8.07;;;3.43;;
4885;SDS011;2457;51.788;6.136;2023-04-22T12:05:30;7.20;;;3.50;;
4885;SDS011;2457;51.788;6.136;2023-04-22T12:07:50;9.20;;;3.83;;
4885;SDS011;2457;51.788;6.136;2023-04-22T12:10:17;5.33;;;2.70;;
4885;SDS011;2457;51.788;6.136;2023-04-22T12:12:45;7.70;;;3.43;;
4885;SDS011;2457;51.788;6.136;2023-04-22T12:15:12;7.60;;;3.57;;
4885;SDS011;2457;51.788;6.136;2023-04-22T12:17:40;6.03;;;3.07;;
4885;SDS011;2457;51.788;6.136;2023-04-22T12:20:11;6.93;;;3.30;;
4885;SDS011;2457;51.788;6.136;2023-04-22T12:22:39;10.33;;;3.80;;
4885;SDS011;2457;51.788;6.136;2023-04-22T12:25:06;8.23;;;4.03;;
4885;SDS011;2457;51.788;6.136;2023-04-22T12:27:35;7.63;;;3.40;;
4885;SDS011;2457;51.788;6.136;2023-04-22T12:30:03;8.37;;;3.73;;
4885;SDS011;2457;51.788;6.136;2023-04-22T12:32:30;6.00;;;3.23;;
4885;SDS011;2457;51.788;6.136;2023-04-22T12:34:57;10.30;;;3.43;;
4885;SDS011;2457;51.788;6.136;2023-04-22T12:37:24;6.60;;;3.20;;
4885;SDS011;2457;51.788;6.136;2023-04-22T12:39:53;7.27;;;3.80;;
4885;SDS011;2457;51.788;6.136;2023-04-22T12:42:20;8.53;;;3.20;;
4885;SDS011;2457;51.788;6.136;2023-04-22T12:44:47;7.80;;;3.70;;
4885;SDS011;2457;51.788;6.136;2023-04-22T12:47:14;6.53;;;3.30;;
4885;SDS011;2457;51.788;6.136;2023-04-22T12:49:43;7.00;;;3.53;;
4885;SDS011;2457;51.788;6.136;2023-04-22T12:52:11;6.80;;;3.43;;
4885;SDS011;2457;51.788;6.136;2023-04-22T12:54:39;7.13;;;3.50;;
4885;SDS011;2457;51.788;6.136;2023-04-22T12:57:06;6.80;;;2.97;;
4885;SDS011;2457;51.788;6.136;2023-04-22T12:59:33;9.20;;;2.87;;
4885;SDS011;2457;51.788;6.136;2023-04-22T13:02:01;6.00;;;3.17;;
4885;SDS011;2457;51.788;6.136;2023-04-22T13:04:28;6.23;;;3.37;;
4885;SDS011;2457;51.788;6.136;2023-04-22T13:06:55;6.93;;;3.60;;
4885;SDS011;2457;51.788;6.136;2023-04-22T13:09:23;7.80;;;4.33;;
4885;SDS011;2457;51.788;6.136;2023-04-22T13:11:51;7.67;;;3.13;;
4885;SDS011;2457;51.788;6.136;2023-04-22T13:14:18;9.93;;;3.60;;
4885;SDS011;2457;51.788;6.136;2023-04-22T13:16:45;6.53;;;3.57;;
4885;SDS011;2457;51.788;6.136;2023-04-22T13:19:12;10.63;;;3.97;;
4885;SDS011;2457;51.788;6.136;2023-04-22T13:21:40;9.37;;;3.73;;
4885;SDS011;2457;51.788;6.136;2023-04-22T13:24:07;6.70;;;3.40;;
4885;SDS011;2457;51.788;6.136;2023-04-22T13:26:35;6.73;;;3.53;;
4885;SDS011;2457;51.788;6.136;2023-04-22T13:29:03;7.53;;;3.40;;
4885;SDS011;2457;51.788;6.136;2023-04-22T13:31:32;10.07;;;3.40;;
4885;SDS011;2457;51.788;6.136;2023-04-22T13:34:00;9.53;;;3.40;;
4885;SDS011;2457;51.788;6.136;2023-04-22T13:36:27;6.50;;;2.90;;
4885;SDS011;2457;51.788;6.136;2023-04-22T13:38:55;8.90;;;3.77;;
4885;SDS011;2457;51.788;6.136;2023-04-22T13:41:23;8.60;;;3.67;;
4885;SDS011;2457;51.788;6.136;2023-04-22T13:43:50;8.63;;;3.50;;
4885;SDS011;2457;51.788;6.136;2023-04-22T13:46:19;6.27;;;3.20;;
4885;SDS011;2457;51.788;6.136;2023-04-22T13:48:46;9.63;;;4.00;;
4885;SDS011;2457;51.788;6.136;2023-04-22T13:51:14;8.73;;;3.70;;
4885;SDS011;2457;51.788;6.136;2023-04-22T13:53:41;6.90;;;3.60;;
4885;SDS011;2457;51.788;6.136;2023-04-22T13:56:08;7.33;;;3.80;;
4885;SDS011;2457;51.788;6.136;2023-04-22T13:58:36;8.40;;;4.17;;
4885;SDS011;2457;51.788;6.136;2023-04-22T14:01:05;8.50;;;4.00;;
4885;SDS011;2457;51.788;6.136;2023-04-22T14:03:32;9.67;;;4.70;;
4885;SDS011;2457;51.788;6.136;2023-04-22T14:06:00;7.80;;;5.00;;
4885;SDS011;2457;51.788;6.136;2023-04-22T14:08:27;11.93;;;6.23;;
4885;SDS011;2457;51.788;6.136;2023-04-22T14:10:54;11.00;;;5.43;;
4885;SDS011;2457;51.788;6.136;2023-04-22T14:13:22;11.87;;;5.80;;
4885;SDS011;2457;51.788;6.136;2023-04-22T14:15:49;9.70;;;5.47;;
4885;SDS011;2457;51.788;6.136;2023-04-22T14:18:16;9.77;;;6.03;;
4885;SDS011;2457;51.788;6.136;2023-04-22T14:20:44;11.40;;;5.50;;
4885;SDS011;2457;51.788;6.136;2023-04-22T14:23:11;10.80;;;5.80;;
4885;SDS011;2457;51.788;6.136;2023-04-22T14:25:38;11.40;;;6.63;;
4885;SDS011;2457;51.788;6.136;2023-04-22T14:28:05;10.30;;;5.93;;
4885;SDS011;2457;51.788;6.136;2023-04-22T14:30:33;10.97;;;5.73;;
4885;SDS011;2457;51.788;6.136;2023-04-22T14:33:00;11.30;;;6.20;;
4885;SDS011;2457;51.788;6.136;2023-04-22T14:35:27;11.83;;;6.60;;
4885;SDS011;2457;51.788;6.136;2023-04-22T14:37:55;18.00;;;6.03;;
4885;SDS011;2457;51.788;6.136;2023-04-22T14:40:22;11.67;;;7.10;;
4885;SDS011;2457;51.788;6.136;2023-04-22T14:42:51;12.00;;;6.50;;
4885;SDS011;2457;51.788;6.136;2023-04-22T14:45:18;15.90;;;6.23;;
4885;SDS011;2457;51.788;6.136;2023-04-22T14:47:46;11.50;;;6.10;;
4885;SDS011;2457;51.788;6.136;2023-04-22T14:50:13;14.10;;;6.50;;
4885;SDS011;2457;51.788;6.136;2023-04-22T14:52:40;12.60;;;6.30;;
4885;SDS011;2457;51.788;6.136;2023-04-22T14:55:08;10.90;;;5.70;;
4885;SDS011;2457;51.788;6.136;2023-04-22T14:57:35;11.77;;;6.87;;
4885;SDS011;2457;51.788;6.136;2023-04-22T15:00:08;16.87;;;6.97;;
4885;SDS011;2457;51.788;6.136;2023-04-22T15:02:33;11.83;;;5.97;;
4885;SDS011;2457;51.788;6.136;2023-04-22T15:05:00;10.73;;;6.23;;
4885;SDS011;2457;51.788;6.136;2023-04-22T15:07:27;20.03;;;10.87;;
4885;SDS011;2457;51.788;6.136;2023-04-22T15:09:55;12.20;;;7.10;;
4885;SDS011;2457;51.788;6.136;2023-04-22T15:12:24;11.97;;;5.87;;
4885;SDS011;2457;51.788;6.136;2023-04-22T15:14:51;10.57;;;5.70;;
4885;SDS011;2457;51.788;6.136;2023-04-22T15:17:18;10.93;;;5.97;;
4885;SDS011;2457;51.788;6.136;2023-04-22T15:19:46;9.93;;;6.00;;
4885;SDS011;2457;51.788;6.136;2023-04-22T15:22:15;10.30;;;6.20;;